Date,TemperatureHighF,TemperatureAvgF,TemperatureLowF,DewpointHighF,DewpointAvgF,DewpointLowF,HumidityHigh,HumidityAvg,HumidityLow,PressureMaxIn,PressureMinIn,WindSpeedMaxMPH,WindSpeedAvgMPH,GustSpeedMaxMPH,PrecipitationSumIn
2014-1-1,35,25,17,30,24,17,100,96,79,29.58,29.35,10,1,10,0.00
2014-1-2,22,14,1,21,14,0,100,99,86,29.72,29.26,16,2,17,0.00
2014-1-3,19,7,-12,12,3,-12,100,85,53,29.89,29.49,17,3,20,0.02
2014-1-4,39,26,14,25,17,11,91,70,47,29.49,29.21,20,4,20,0.05
2014-1-5,35,29,6,32,27,6,100,94,66,29.28,28.91,11,0,12,0.01
2014-1-6,7,-10,-15,6,-10,-15,100,99,89,29.77,29.25,0,0,0,0.00
2014-1-7,8,-3,-16,8,-4,-16,100,95,75,29.79,29.65,0,0,0,0.00
2014-1-8,25,14,5,20,13,5,100,96,78,29.77,29.60,0,0,0,0.00
2014-1-9,31,21,10,31,21,10,100,99,91,29.80,29.48,10,0,12,0.00
2014-1-10,44,37,31,43,37,31,100,100,100,29.48,28.86,17,3,18,1.32
2014-1-11,45,38,33,44,38,32,100,100,94,29.04,28.69,16,2,16,0.06
2014-1-12,42,35,28,35,31,28,100,88,70,29.28,29.02,20,4,22,0.00
2014-1-13,49,43,31,45,37,31,100,82,68,29.05,28.83,21,3,21,0.00
2014-1-14,43,30,19,36,26,19,100,87,52,29.19,28.93,22,2,22,0.03
2014-1-15,27,21,16,22,18,14,100,88,76,29.39,29.18,12,1,13,0.00
2014-1-16,31,23,14,30,22,14,100,98,88,29.33,28.93,19,4,23,0.00
2014-1-17,29,16,7,29,15,7,100,96,74,29.37,28.98,12,1,18,0.00
2014-1-18,22,16,11,22,16,11,100,97,79,29.35,29.05,17,3,18,0.00
2014-1-19,36,24,13,28,21,13,100,88,69,29.26,28.90,19,4,21,0.02
2014-1-20,41,34,28,32,29,26,100,84,65,29.18,28.88,16,1,17,0.07
2014-1-21,29,11,-4,29,7,-4,100,87,55,29.58,29.12,19,2,19,0.00
2014-1-22,14,4,-10,14,3,-10,100,97,74,29.58,29.27,15,2,18,0.00
2014-1-23,6,0,-6,4,-1,-6,100,94,79,29.96,29.44,13,1,17,0.00
2014-1-24,21,6,-10,18,1,-10,100,81,53,29.96,29.04,25,4,26,0.03
2014-1-25,33,19,2,30,14,1,100,85,53,29.26,28.76,24,4,27,0.02
2014-1-26,41,23,1,33,18,0,100,81,54,29.26,28.73,32,2,32,0.06
2014-1-27,20,3,-9,16,-1,-10,100,86,51,29.82,29.00,24,3,28,0.00
2014-1-28,13,-4,-18,0,-8,-18,100,86,52,29.87,29.62,10,0,10,0.00
2014-1-29,25,11,-6,10,4,-6,100,74,50,29.67,29.48,16,2,16,0.00
2014-1-30,33,23,12,16,9,5,76,57,40,29.48,29.05,28,5,28,0.00
2014-1-31,34,29,27,28,23,14,100,79,49,29.37,29.19,11,0,12,0.00
2014-2-1,41,34,28,40,34,28,100,100,100,29.32,29.01,12,2,12,1.19
2014-2-2,30,24,17,30,24,17,100,99,89,29.55,29.24,10,1,11,0.06
2014-2-3,28,15,7,20,13,7,100,92,65,29.71,29.51,8,0,8,0.10
2014-2-4,23,17,8,20,16,8,100,97,80,29.69,29.19,15,1,15,0.00
2014-2-5,27,20,12,22,19,12,100,97,83,29.70,29.10,14,2,16,0.00
2014-2-6,18,7,-8,18,6,-9,100,94,71,29.81,29.68,12,0,12,0.00
2014-2-7,16,0,-14,4,-4,-14,100,87,57,29.83,29.67,12,1,13,0.00
2014-2-8,22,12,-2,20,11,-2,100,95,77,29.72,29.41,12,1,12,0.00
2014-2-9,25,18,6,21,16,6,100,94,69,29.59,29.35,14,1,14,0.02
2014-2-10,16,2,-8,8,0,-8,100,92,64,29.80,29.59,8,0,10,0.00
2014-2-11,17,0,-17,9,-2,-17,100,92,68,29.88,29.70,7,0,8,0.00
2014-2-12,30,7,-14,14,2,-14,100,85,50,29.76,29.31,10,1,10,0.01
2014-2-13,40,20,1,24,10,0,100,71,27,29.36,28.85,13,1,14,0.07
2014-2-14,33,18,10,28,17,10,100,95,73,29.17,28.84,15,1,15,0.00
2014-2-15,27,17,3,19,12,3,100,83,54,29.40,29.17,11,1,11,0.07
2014-2-16,29,21,11,23,19,11,100,94,72,29.59,29.22,12,1,12,0.01
2014-2-17,34,23,10,34,22,10,100,96,80,29.61,28.93,20,4,22,0.00
2014-2-18,50,39,24,34,30,24,100,72,47,29.31,28.95,15,3,20,0.54
2014-2-19,47,40,31,38,33,28,98,77,60,29.29,28.89,11,1,13,0.00
2014-2-20,57,44,28,56,43,28,100,95,81,29.24,28.56,21,4,22,0.56
2014-2-21,42,36,33,34,27,20,94,70,44,29.14,28.83,22,4,31,0.00
2014-2-22,49,39,28,35,30,23,100,72,53,29.27,29.09,17,1,17,0.00
2014-2-23,34,27,20,34,23,14,100,85,60,29.50,29.27,13,1,14,0.02
2014-2-24,32,22,16,20,15,11,96,75,47,29.55,29.48,13,1,16,0.00
2014-2-25,25,21,13,19,16,7,93,82,72,29.50,29.41,12,2,15,0.00
2014-2-26,21,12,2,9,5,2,100,77,48,29.56,29.13,14,2,16,0.00
2014-2-27,19,13,2,14,5,0,100,70,48,30.53,29.02,22,2,22,0.00
2014-2-28,35,18,2,14,8,2,100,69,34,30.56,30.28,14,3,19,0.00
2014-3-1,50,33,22,30,22,12,100,67,42,30.50,30.26,11,1,11,0.00
2014-3-2,22,18,11,22,16,7,100,94,76,30.61,30.47,15,2,15,0.00
2014-3-3,18,9,2,8,3,0,100,78,50,30.76,30.60,11,1,13,0.04
2014-3-4,35,17,2,16,9,2,100,72,36,30.71,30.38,9,1,10,0.07
2014-3-5,30,20,13,22,16,12,100,84,53,30.66,30.50,14,2,14,0.01
2014-3-6,41,25,15,28,19,13,100,81,51,30.66,30.35,10,2,13,0.02
2014-3-7,58,36,16,34,27,16,100,74,36,30.39,30.08,11,1,11,0.00
2014-3-8,42,34,24,37,32,22,100,93,80,30.50,30.19,11,2,18,0.00
2014-3-9,45,31,16,32,24,16,100,77,49,30.58,30.21,11,2,15,0.00
2014-3-10,60,46,36,43,38,32,87,72,52,30.21,29.85,16,3,19,0.00
2014-3-11,70,52,36,50,44,36,100,77,39,29.94,29.69,10,1,14,0.00
2014-3-12,46,35,29,39,34,28,100,96,76,30.05,29.61,16,4,19,1.55
2014-3-13,36,32,22,24,19,13,76,58,51,29.44,29.25,12,3,14,0.01
2014-3-14,61,46,34,40,34,23,81,63,42,29.25,28.85,30,4,30,0.01
2014-3-15,54,41,31,37,32,28,100,73,40,29.40,29.11,10,1,12,0.00
2014-3-16,33,26,18,29,19,14,90,76,61,29.48,29.36,18,3,22,0.00
2014-3-17,37,19,14,26,16,13,100,91,61,29.38,29.07,12,2,13,0.00
2014-3-18,54,38,20,43,32,20,100,81,58,29.22,28.95,27,4,27,0.00
2014-3-19,53,45,35,48,42,29,99,88,77,29.27,28.87,16,4,21,0.01
2014-3-20,53,40,27,36,30,25,100,71,48,29.35,29.16,11,2,16,0.00
2014-3-21,68,53,34,38,35,33,100,57,31,29.27,28.91,15,3,17,0.00
2014-3-22,57,40,32,41,32,29,95,73,44,29.45,28.93,14,2,16,0.00
2014-3-23,36,28,20,32,20,16,92,73,46,29.65,29.45,10,2,12,0.00
2014-3-24,40,26,14,24,16,12,100,70,37,29.67,29.39,9,1,10,0.00
2014-3-25,34,26,20,28,20,10,100,78,51,29.50,29.26,17,2,22,0.03
2014-3-26,42,27,11,20,12,9,100,59,27,29.64,29.39,11,2,16,0.00
2014-3-27,51,39,31,43,25,14,92,58,42,29.42,28.91,19,6,22,0.15
2014-3-28,52,46,35,50,44,34,100,93,72,29.38,28.82,20,6,29,0.10
2014-3-29,38,35,32,38,35,32,100,99,89,29.45,29.28,10,2,15,0.42
2014-3-30,58,33,23,37,29,23,100,88,41,29.51,29.27,9,1,11,0.00
2014-3-31,67,49,28,37,33,28,100,61,29,29.41,29.02,21,5,27,0.00
2014-4-1,62,55,47,46,38,33,69,52,37,29.28,28.99,21,3,24,0.02
2014-4-2,52,47,40,51,44,34,100,92,62,29.35,29.19,10,2,12,0.28
2014-4-3,62,50,45,62,50,45,100,100,100,29.21,28.77,12,2,15,3.06
2014-4-4,57,44,36,57,42,30,100,90,76,29.24,28.68,15,3,20,0.22
2014-4-5,52,40,31,36,31,28,97,72,48,29.45,29.24,10,1,13,0.00
2014-4-6,56,41,25,39,32,25,100,75,43,29.46,29.13,13,2,17,0.00
2014-4-7,47,43,40,44,39,34,100,86,71,29.17,28.68,13,1,16,1.17
2014-4-8,58,46,34,50,42,34,100,87,66,29.12,28.85,9,1,13,0.03
2014-4-9,63,47,32,43,38,32,100,73,37,29.26,29.12,11,1,14,0.00
2014-4-10,73,58,47,55,43,36,100,59,39,29.19,28.89,22,4,22,0.11
2014-4-11,70,54,45,56,47,34,100,84,28,29.28,29.11,12,1,13,0.16
2014-4-12,78,60,38,55,46,35,100,62,36,29.34,28.92,20,4,24,0.00
2014-4-13,75,69,63,58,56,53,79,64,51,28.98,28.77,18,5,24,0.00
2014-4-14,71,52,30,62,50,30,100,94,56,29.17,28.68,19,4,25,0.25
2014-4-15,39,30,22,30,24,17,100,79,44,29.54,29.15,15,2,16,0.20
2014-4-16,50,36,21,28,23,18,100,60,35,29.63,29.39,15,4,22,0.00
2014-4-17,67,51,35,40,32,26,74,51,30,29.49,29.33,15,2,19,0.00
2014-4-18,71,55,40,46,40,35,94,61,37,29.49,29.31,11,1,12,0.00
2014-4-19,66,51,34,48,40,32,100,68,39,29.57,29.35,13,2,17,0.00
2014-4-20,76,53,35,40,35,30,89,55,23,29.50,29.21,12,1,14,0.00
2014-4-21,75,60,41,60,47,36,100,67,39,29.28,29.00,11,2,15,0.01
2014-4-22,58,54,42,58,43,32,100,71,42,29.23,28.95,17,3,19,0.02
2014-4-23,60,46,31,38,33,29,99,63,34,29.36,29.19,10,1,11,0.00
2014-4-24,66,56,48,39,34,29,72,46,32,29.29,28.88,21,6,22,0.00
2014-4-25,69,58,49,54,44,32,100,67,33,29.07,28.80,16,3,22,0.36
2014-4-26,74,61,44,52,45,38,100,58,36,29.15,28.99,10,1,13,0.00
2014-4-27,71,57,43,49,42,36,82,60,41,29.26,28.95,22,5,23,0.00
2014-4-28,71,56,47,63,51,41,100,85,60,29.04,28.67,17,4,29,0.63
2014-4-29,73,60,50,61,52,39,100,79,32,28.95,28.69,21,5,31,0.25
2014-4-30,63,52,42,54,48,38,100,86,56,29.11,28.89,12,2,18,0.00
2014-5-1,54,46,41,43,40,38,93,79,58,29.11,29.01,13,2,18,0.00
2014-5-2,54,48,45,45,44,41,97,86,65,29.10,29.03,13,1,15,0.00
2014-5-3,69,57,46,47,40,34,94,57,28,29.09,28.92,14,3,28,0.00
2014-5-4,67,57,48,46,38,25,74,50,32,29.26,29.07,14,2,15,0.00
2014-5-5,67,55,43,49,42,30,84,62,49,29.25,28.96,14,3,18,0.02
2014-5-6,73,59,45,49,43,39,84,59,40,29.18,28.97,19,4,20,0.00
2014-5-7,85,69,48,63,54,44,97,62,40,29.09,28.89,19,3,19,0.00
2014-5-8,85,75,64,65,60,55,84,61,46,29.11,28.95,17,4,24,0.00
2014-5-9,78,70,62,64,60,54,95,71,49,29.04,28.87,15,4,21,0.03
2014-5-10,78,64,52,59,50,39,100,66,29,29.20,28.99,10,1,12,0.00
2014-5-11,84,67,50,68,60,45,100,79,51,29.24,28.99,13,3,17,0.12
2014-5-12,82,71,61,73,67,61,100,88,65,29.20,29.02,15,3,21,3.01
2014-5-13,81,68,55,72,66,55,100,95,64,29.30,29.03,15,3,21,0.48
2014-5-14,57,53,49,57,53,49,100,100,100,29.32,29.03,10,1,14,1.07
2014-5-15,52,47,39,50,46,39,100,95,73,29.30,28.97,11,1,14,0.01
2014-5-16,52,44,37,48,43,37,100,98,77,29.30,29.15,9,1,11,0.65
2014-5-17,59,44,38,45,40,35,100,89,45,29.48,29.28,9,0,12,0.00
2014-5-18,65,49,33,52,38,30,100,72,33,29.53,29.35,9,1,12,0.00
2014-5-19,70,54,38,48,42,38,100,70,37,29.52,29.19,14,3,18,0.00
2014-5-20,81,70,60,67,58,47,100,68,55,29.26,28.99,13,3,16,0.00
2014-5-21,84,70,65,72,66,62,100,89,62,29.09,28.95,11,1,16,0.08
2014-5-22,77,67,56,66,57,48,100,75,38,29.27,29.03,7,1,13,0.00
2014-5-23,76,62,47,58,51,47,100,73,39,29.35,29.21,9,1,11,0.00
2014-5-24,77,62,44,61,52,44,100,75,39,29.41,29.21,10,1,10,0.00
2014-5-25,82,66,51,65,54,49,100,70,37,29.35,29.14,9,1,12,0.01
2014-5-26,87,70,54,69,61,54,100,76,47,29.29,29.04,9,1,11,0.00
2014-5-27,86,75,65,70,65,60,100,74,46,29.15,28.96,9,1,13,0.00
2014-5-28,86,73,62,69,65,61,100,78,44,29.15,28.97,10,1,14,0.00
2014-5-29,85,72,63,71,66,63,100,84,53,29.21,29.06,10,1,15,0.00
2014-5-30,85,72,59,64,55,48,85,57,33,29.28,29.13,13,2,14,0.00
2014-5-31,85,71,56,62,55,50,100,64,32,29.36,29.12,12,2,15,0.00
2014-6-1,88,71,53,70,60,53,100,72,40,29.32,29.04,10,2,14,0.00
2014-6-2,78,72,67,72,69,67,100,92,72,29.16,29.05,16,4,24,2.28
2014-6-3,86,74,61,75,65,53,100,76,37,29.10,28.97,13,1,14,0.00
2014-6-4,77,64,58,75,63,58,100,98,83,29.09,28.81,9,1,12,0.84
2014-6-5,76,63,52,64,56,48,100,81,41,29.15,28.99,7,1,9,0.01
2014-6-6,82,65,50,63,53,48,100,72,36,29.20,29.02,8,1,13,0.00
2014-6-7,81,68,52,65,55,52,100,68,39,29.24,28.91,12,2,14,0.00
2014-6-8,77,66,59,66,62,57,100,88,61,29.16,28.82,11,1,17,0.79
2014-6-9,79,66,56,65,59,54,100,81,45,29.17,28.98,7,1,11,0.00
2014-6-10,71,65,61,68,64,61,100,96,80,29.07,28.89,10,2,17,0.28
2014-6-11,78,68,64,71,67,64,100,96,68,28.92,28.78,11,3,15,0.47
2014-6-12,83,70,60,68,65,60,100,86,56,29.01,28.87,9,1,12,0.02
2014-6-13,76,65,50,68,56,47,100,76,37,29.25,28.97,9,1,11,0.13
2014-6-14,77,61,43,55,48,42,100,67,35,29.34,29.14,13,2,13,0.00
2014-6-15,84,69,49,67,58,49,100,71,49,29.26,28.99,17,3,22,0.00
2014-6-16,88,77,70,75,71,67,100,83,58,29.23,29.09,9,1,13,0.00
2014-6-17,89,79,70,74,71,68,100,77,57,29.17,28.98,18,2,19,0.00
2014-6-18,88,76,67,75,71,66,100,86,58,29.16,29.01,12,2,19,0.27
2014-6-19,87,72,65,79,70,65,100,94,68,29.22,29.07,9,1,13,0.99
2014-6-20,85,74,67,77,71,67,100,91,66,29.18,28.97,7,0,9,0.00
2014-6-21,87,73,64,72,68,63,100,86,46,29.13,28.95,7,0,8,0.01
2014-6-22,90,76,67,71,69,65,100,82,50,29.05,28.87,9,1,10,0.00
2014-6-23,88,73,64,76,69,64,100,90,57,29.05,28.89,18,2,35,0.70
2014-6-24,80,71,67,76,70,67,100,98,74,29.05,28.97,7,1,9,0.39
2014-6-25,86,73,64,78,70,64,100,89,62,29.15,29.00,8,0,8,0.01
2014-6-26,87,72,62,72,66,62,100,86,52,29.21,29.03,6,0,7,0.00
2014-6-27,86,73,62,74,67,62,100,85,54,29.21,29.07,9,1,15,0.07
2014-6-28,83,73,67,76,71,67,100,93,67,29.23,29.09,10,2,14,0.04
2014-6-29,84,76,70,75,72,70,100,89,69,29.17,29.05,10,2,13,0.00
2014-6-30,84,74,68,78,72,68,100,95,74,29.13,28.88,11,2,18,0.02
2014-7-1,87,76,64,78,69,64,100,80,48,29.04,28.86,11,1,23,0.37
2014-7-2,79,72,62,71,65,59,100,81,57,29.15,28.95,8,1,15,0.00
2014-7-3,76,64,56,62,58,53,100,84,49,29.36,29.15,10,0,10,0.00
2014-7-4,80,64,48,64,54,48,100,76,41,29.47,29.32,7,0,10,0.00
2014-7-5,81,66,50,61,54,50,100,72,38,29.50,29.20,9,1,13,0.00
2014-7-6,82,70,59,72,65,59,100,85,67,29.28,28.96,10,2,14,0.10
2014-7-7,81,73,69,77,70,63,100,91,71,29.01,28.85,9,2,14,0.03
2014-7-8,82,73,66,73,68,63,100,87,62,29.01,28.81,10,2,15,0.84
2014-7-9,81,71,60,68,62,57,100,78,44,29.19,29.01,8,1,13,0.00
2014-7-10,80,68,57,65,59,53,100,77,44,29.35,29.19,7,0,9,0.00
2014-7-11,84,68,52,66,59,52,100,78,44,29.39,29.19,7,0,8,0.00
2014-7-12,78,71,61,75,68,61,100,92,71,29.33,29.09,12,2,17,0.00
2014-7-13,87,77,67,76,73,67,100,89,63,29.10,28.96,10,1,15,0.00
2014-7-14,85,70,64,75,66,57,100,89,45,29.06,28.87,7,0,14,0.10
2014-7-15,72,62,53,64,56,53,100,83,55,29.16,28.98,9,1,10,0.00
2014-7-16,53,52,52,53,52,52,100,100,100,29.17,29.16,0,0,0,0.00
2014-7-17,78,66,53,56,53,51,100,67,41,29.33,29.18,6,0,6,0.00
2014-7-18,76,64,50,64,56,50,100,78,50,29.38,29.21,10,1,13,0.00
2014-7-19,78,64,54,67,61,54,100,90,64,29.29,29.11,6,0,6,0.00
2014-7-20,83,67,54,70,61,54,100,84,49,29.25,29.08,7,0,8,0.00
2014-7-21,87,71,56,73,64,56,100,83,51,29.29,29.11,6,0,7,0.00
2014-7-22,89,75,60,75,67,60,100,81,50,29.28,29.04,8,1,10,0.00
2014-7-23,75,70,59,74,69,59,100,99,72,29.23,29.09,12,1,14,0.05
2014-7-24,77,64,53,66,57,53,100,82,48,29.27,29.12,8,0,10,0.00
2014-7-25,78,63,49,65,57,49,100,84,47,29.32,29.07,8,1,11,0.00
2014-7-26,82,73,65,77,68,61,100,87,71,29.14,28.88,9,1,17,0.25
2014-7-27,85,72,65,76,68,60,100,90,66,29.03,28.75,8,1,15,0.36
2014-7-28,73,63,50,64,59,49,100,86,58,29.26,28.98,9,1,16,0.00
2014-7-29,78,61,49,66,56,49,100,86,49,29.27,29.11,7,0,10,0.84
2014-7-30,81,66,55,71,62,55,100,88,57,29.21,29.07,6,0,9,0.02
2014-7-31,82,68,57,71,62,57,100,83,51,29.25,29.12,8,0,10,0.00
2014-8-1,83,68,56,71,62,56,100,86,50,29.29,29.13,8,0,9,0.00
2014-8-2,83,70,60,70,64,60,100,85,52,29.29,29.13,5,0,8,0.00
2014-8-3,86,71,57,72,62,57,100,79,42,29.32,29.14,5,0,8,0.00
2014-8-4,86,68,57,75,63,57,100,89,50,29.30,29.11,9,0,11,0.00
2014-8-5,82,70,61,72,66,61,100,87,54,29.23,29.08,5,0,6,0.00
2014-8-6,81,69,60,73,66,60,100,93,68,29.21,29.09,3,0,5,0.00
2014-8-7,78,68,58,64,60,57,100,79,53,29.26,29.12,12,1,13,0.00
2014-8-8,79,69,62,63,61,58,100,76,51,29.22,29.09,17,2,21,0.00
2014-8-9,83,71,61,69,64,61,100,81,60,29.20,29.05,10,1,13,0.00
2014-8-10,84,73,63,76,68,62,100,87,62,29.16,29.01,9,1,11,0.13
2014-8-11,80,72,66,77,71,66,100,99,80,29.07,28.91,7,0,8,0.54
2014-8-12,66,63,58,66,63,58,100,100,92,29.15,28.93,6,1,10,0.05
2014-8-13,81,67,54,68,60,54,100,82,46,29.21,29.08,7,0,9,0.02
2014-8-14,80,67,52,68,60,50,100,81,50,29.26,29.08,5,0,7,0.00
2014-8-15,80,59,42,58,50,42,100,76,33,29.32,29.09,6,0,8,0.00
2014-8-16,74,62,50,73,62,50,100,99,90,29.22,29.07,9,0,9,0.37
2014-8-17,81,70,62,72,68,62,100,93,69,29.11,28.99,10,1,11,0.00
2014-8-18,86,71,61,73,68,61,100,90,61,29.06,28.87,6,0,9,0.00
2014-8-19,86,73,62,76,68,62,100,88,62,29.00,28.84,8,1,11,0.04
2014-8-20,84,73,63,75,68,63,100,86,56,29.15,28.95,6,1,11,0.01
2014-8-21,87,73,67,78,71,67,100,95,71,29.17,29.01,9,1,14,2.15
2014-8-22,86,74,68,79,72,68,100,95,72,29.15,29.02,8,1,11,0.33
2014-8-23,89,75,66,78,72,66,100,91,61,29.14,28.97,7,1,12,0.56
2014-8-24,88,76,69,79,73,69,100,93,66,29.15,29.02,9,1,9,0.01
2014-8-25,92,74,67,79,71,67,100,92,56,29.21,29.03,6,0,10,0.02
2014-8-26,92,75,65,78,71,65,100,90,60,29.25,29.11,6,0,11,0.03
2014-8-27,87,74,65,77,71,65,100,91,68,29.24,29.10,6,0,7,0.00
2014-8-28,83,70,61,70,66,61,100,88,60,29.27,29.08,8,1,10,0.00
2014-8-29,85,72,65,76,69,65,100,91,68,29.21,28.99,10,2,13,0.00
2014-8-30,80,74,68,74,71,67,100,90,74,29.11,29.02,12,3,16,0.00
2014-8-31,84,74,69,76,72,69,100,93,68,29.12,29.00,10,1,12,0.27
2014-9-1,82,74,69,76,72,69,100,92,73,29.10,28.91,17,3,19,0.13
2014-9-2,81,70,65,74,69,65,100,96,71,29.14,28.98,8,1,10,0.48
2014-9-3,86,72,62,75,66,62,100,85,47,29.21,29.05,8,0,8,0.00
2014-9-4,91,74,61,75,68,61,100,84,47,29.22,29.02,11,1,12,0.00
2014-9-5,91,79,67,78,73,67,100,84,59,29.21,28.99,10,2,18,0.28
2014-9-6,75,66,55,70,64,55,100,95,60,29.35,29.13,5,0,8,0.06
2014-9-7,77,61,49,64,55,49,100,83,45,29.41,29.21,6,1,11,0.00
2014-9-8,80,62,49,63,55,49,100,82,42,29.35,29.10,7,1,10,0.00
2014-9-9,81,64,51,67,60,51,100,87,52,29.26,29.05,7,1,10,0.00
2014-9-10,76,70,63,76,70,62,100,99,90,29.09,28.78,14,3,19,2.27
2014-9-11,70,59,54,70,58,54,100,96,84,29.39,28.88,5,1,10,0.00
2014-9-12,62,56,52,56,54,52,100,94,74,29.42,29.31,6,0,8,0.00
2014-9-13,65,53,45,54,49,45,100,87,53,29.53,29.35,6,1,10,0.00
2014-9-14,72,52,39,54,46,39,100,84,46,29.55,29.29,6,1,8,0.00
2014-9-15,68,53,44,58,52,44,100,96,60,29.42,29.21,9,0,14,0.27
2014-9-16,68,56,46,57,53,46,100,88,57,29.37,29.22,4,0,6,0.00
2014-9-17,70,54,42,58,50,42,100,87,53,29.32,29.09,6,0,8,0.00
2014-9-18,73,57,44,58,51,44,100,83,45,29.33,29.15,7,0,10,0.00
2014-9-19,73,58,46,58,51,46,100,82,41,29.39,29.16,12,1,15,0.00
2014-9-20,80,64,49,71,59,49,100,88,62,29.25,28.96,11,1,16,0.15
2014-9-21,73,64,50,69,59,50,100,84,51,29.28,28.91,12,2,15,0.02
2014-9-22,65,49,41,51,46,41,100,90,49,29.45,29.28,9,1,10,0.00
2014-10-5,59,49,39,45,39,33,100,71,39,29.07,28.90,12,2,20,0.00
2014-10-6,68,52,38,57,46,38,100,85,44,28.99,28.76,13,2,19,0.16
2014-10-7,62,53,44,61,53,44,100,99,90,29.07,28.87,13,2,15,0.05
2014-10-8,68,54,42,53,45,39,100,78,36,29.29,29.07,11,1,19,0.01
2014-10-9,58,51,41,57,50,41,100,98,81,29.35,29.23,5,0,6,0.23
2014-10-10,53,49,44,52,45,41,100,87,66,29.33,29.25,5,0,10,0.00
2014-10-11,60,48,37,45,40,37,100,80,46,29.43,29.29,10,1,12,0.00
2014-10-12,64,46,35,59,43,35,100,89,63,29.40,29.09,10,1,14,0.12
2014-10-13,75,67,57,70,64,57,100,91,71,29.10,28.80,17,6,23,0.49
2014-10-14,67,62,54,64,59,51,100,92,64,28.87,28.68,19,6,23,0.51
2014-10-15,56,54,53,56,54,53,100,100,100,28.96,28.86,7,1,10,0.24
2014-10-16,62,55,50,60,54,50,100,96,82,29.02,28.94,9,1,13,0.00
2014-10-17,68,56,50,54,51,48,100,83,51,29.02,28.78,12,3,18,0.00
2014-10-18,54,48,45,50,47,44,100,96,79,29.38,29.02,11,2,19,0.07
2014-10-19,58,46,32,44,40,32,100,81,51,29.46,29.24,10,1,11,0.00
2014-10-20,69,54,45,56,49,44,100,84,52,29.24,28.93,12,2,17,0.01
2014-10-21,59,50,44,49,46,41,100,85,59,29.41,29.15,12,1,15,0.00
2014-10-22,60,44,32,45,39,32,100,84,54,29.57,29.39,10,1,11,0.00
2014-10-23,62,45,31,49,39,31,100,83,49,29.53,29.27,8,1,10,0.00
2014-10-24,65,49,37,55,46,37,100,91,64,29.35,29.14,9,1,10,0.00
2014-10-25,77,61,47,60,51,38,100,74,34,29.22,28.99,12,1,16,0.00
2014-10-26,70,52,38,43,35,29,95,57,22,29.27,29.05,9,1,9,0.00
2014-10-27,79,63,43,62,49,36,88,62,40,29.15,28.83,19,4,21,0.00
2014-10-28,70,60,45,63,52,40,100,77,53,29.24,28.91,15,3,21,0.33
2014-10-29,50,44,39,43,38,35,100,79,60,29.36,29.24,12,1,13,0.00